Impacts METAR Board INFO
IDs:

KIAH - Houston/Bush Intl, TX, US

Updated at: 0824 UTC 12 Dec 2017
Potential Impact None Slight Moderate High
Time11/20Z 11/21Z 11/22Z 11/23Z 12/00Z 12/01Z 12/02Z 12/03Z 12/04Z 12/05Z 12/06Z 12/07Z 12/08Z
VIS10 10 10 10 10 10 10 10 10 10 10 10 10
CIG-- -- -- 250 -- -- 250 250 250 250 -- -- --
CoverSCTSCTSCTBKNSCTSCTBKNBKNBKNBKNSCTSCTSCT
FltCatVFRVFRVFRVFRVFRVFRVFRVFRVFRVFRVFRVFRVFR
WX--------------------------
WDir2800250240220210200220230240250250230
WSpd6 5 9 4 3 5 4 4 7 5 6 4 4
WGst-- -- -- -- -- -- -- -- -- -- -- -- --
Raw hourly METARs
KIAH 111953Z 28006KT 10SM SCT250 24/M01 A3020 RMK AO2 SLP226 T02391011
KIAH 112053Z VRB05KT 10SM SCT250 24/M03 A3018 RMK AO2 SLP218 T02391028 56033
KIAH 112153Z 25009KT 10SM SCT250 23/M04 A3018 RMK AO2 SLP218 T02331039
KIAH 112253Z 24004KT 10SM BKN250 22/M03 A3016 RMK AO2 SLP215 T02171028
KIAH 112353Z 22003KT 10SM SCT250 18/00 A3017 RMK AO2 SLP216 T01780000 10239 20178 55003
KIAH 120053Z 21005KT 10SM SCT250 18/02 A3018 RMK AO2 SLP221 T01780017
KIAH 120153Z 20004KT 10SM BKN250 16/03 A3019 RMK AO2 SLP223 T01560028
KIAH 120253Z 22004KT 10SM BKN250 16/03 A3019 RMK AO2 SLP224 T01560033 51007
KIAH 120353Z 23007KT 10SM BKN250 15/04 A3019 RMK AO2 SLP221 T01500044
KIAH 120453Z 24005KT 10SM BKN250 13/05 A3018 RMK AO2 SLP220 T01330050
KIAH 120553Z 25006KT 10SM SCT250 13/06 A3018 RMK AO2 SLP220 T01330061 10183 20128 402390044 55002
KIAH 120653Z 25004KT 10SM SCT250 12/06 A3017 RMK AO2 SLP215 T01170056
KIAH 120753Z 23004KT 10SM SCT250 09/06 A3017 RMK AO2 SLP216 T00940056